sensor_id;sensor_type;location;lat;lon;timestamp;pressure;altitude;pressure_sealevel;temperature;humidity
19086;BME280;9675;51.538;6.728;2024-02-14T00:00:58;101177.66;;;9.17;100.00
19086;BME280;9675;51.538;6.728;2024-02-14T00:03:25;101174.06;;;9.15;100.00
19086;BME280;9675;51.538;6.728;2024-02-14T00:05:52;101163.69;;;9.13;100.00
19086;BME280;9675;51.538;6.728;2024-02-14T00:08:21;101167.06;;;9.12;100.00
19086;BME280;9675;51.538;6.728;2024-02-14T00:10:48;101160.75;;;9.07;100.00
19086;BME280;9675;51.538;6.728;2024-02-14T00:13:16;101172.28;;;9.14;100.00
19086;BME280;9675;51.538;6.728;2024-02-14T00:15:44;101170.44;;;9.11;100.00
19086;BME280;9675;51.538;6.728;2024-02-14T00:18:11;101170.44;;;9.11;100.00
19086;BME280;9675;51.538;6.728;2024-02-14T00:20:38;101166.88;;;9.09;100.00
19086;BME280;9675;51.538;6.728;2024-02-14T00:23:05;101160.84;;;9.09;100.00
19086;BME280;9675;51.538;6.728;2024-02-14T00:25:34;101160.69;;;9.06;100.00
19086;BME280;9675;51.538;6.728;2024-02-14T00:28:01;101159.69;;;9.04;100.00
19086;BME280;9675;51.538;6.728;2024-02-14T00:30:29;101162.25;;;9.04;100.00
19086;BME280;9675;51.538;6.728;2024-02-14T00:32:56;101160.47;;;9.03;100.00
19086;BME280;9675;51.538;6.728;2024-02-14T00:35:24;101165.63;;;9.03;100.00
19086;BME280;9675;51.538;6.728;2024-02-14T00:37:51;101160.47;;;9.03;100.00
19086;BME280;9675;51.538;6.728;2024-02-14T00:40:18;101156.97;;;9.01;100.00
19086;BME280;9675;51.538;6.728;2024-02-14T00:42:47;101166.34;;;9.00;100.00
19086;BME280;9675;51.538;6.728;2024-02-14T00:45:14;101162.09;;;9.01;100.00
19086;BME280;9675;51.538;6.728;2024-02-14T00:47:41;101159.59;;;9.02;100.00
19086;BME280;9675;51.538;6.728;2024-02-14T00:50:09;101155.19;;;9.00;100.00
19086;BME280;9675;51.538;6.728;2024-02-14T00:52:36;101147.47;;;9.00;100.00
19086;BME280;9675;51.538;6.728;2024-02-14T00:55:04;101144.69;;;8.96;100.00
19086;BME280;9675;51.538;6.728;2024-02-14T00:57:32;101136.19;;;8.98;100.00
19086;BME280;9675;51.538;6.728;2024-02-14T01:00:00;101138.88;;;8.99;100.00
19086;BME280;9675;51.538;6.728;2024-02-14T01:02:29;101122.56;;;8.99;100.00
19086;BME280;9675;51.538;6.728;2024-02-14T01:04:56;101120.78;;;8.98;100.00
19086;BME280;9675;51.538;6.728;2024-02-14T01:07:24;101120.78;;;8.98;100.00
19086;BME280;9675;51.538;6.728;2024-02-14T01:09:51;101122.47;;;8.97;100.00
19086;BME280;9675;51.538;6.728;2024-02-14T01:12:18;101120.72;;;8.96;100.00
19086;BME280;9675;51.538;6.728;2024-02-14T01:14:45;101119.00;;;8.96;100.00
19086;BME280;9675;51.538;6.728;2024-02-14T01:17:13;101112.13;;;8.95;100.00
19086;BME280;9675;51.538;6.728;2024-02-14T01:19:40;101105.22;;;8.94;100.00
19086;BME280;9675;51.538;6.728;2024-02-14T01:22:07;101112.13;;;8.95;100.00
19086;BME280;9675;51.538;6.728;2024-02-14T01:24:34;101117.28;;;8.95;100.00
19086;BME280;9675;51.538;6.728;2024-02-14T01:27:02;101120.63;;;8.94;100.00
19086;BME280;9675;51.538;6.728;2024-02-14T01:29:29;101123.19;;;8.94;100.00
19086;BME280;9675;51.538;6.728;2024-02-14T01:31:56;101119.72;;;8.94;100.00
19086;BME280;9675;51.538;6.728;2024-02-14T01:34:25;101109.56;;;8.95;100.00
19086;BME280;9675;51.538;6.728;2024-02-14T01:36:54;101114.69;;;8.95;100.00
19086;BME280;9675;51.538;6.728;2024-02-14T01:39:21;101111.94;;;8.92;100.00
19086;BME280;9675;51.538;6.728;2024-02-14T01:41:49;101105.22;;;8.94;100.00
19086;BME280;9675;51.538;6.728;2024-02-14T01:44:17;101119.00;;;8.96;100.00
19086;BME280;9675;51.538;6.728;2024-02-14T01:46:44;101113.97;;;8.98;100.00
19086;BME280;9675;51.538;6.728;2024-02-14T01:49:12;101097.69;;;8.98;100.00
19086;BME280;9675;51.538;6.728;2024-02-14T01:51:43;101101.13;;;8.98;100.00
19086;BME280;9675;51.538;6.728;2024-02-14T01:54:12;101102.81;;;8.98;100.00
19086;BME280;9675;51.538;6.728;2024-02-14T01:56:40;101105.38;;;8.98;100.00
19086;BME280;9675;51.538;6.728;2024-02-14T01:59:08;101107.94;;;8.98;100.00
19086;BME280;9675;51.538;6.728;2024-02-14T02:01:36;101102.91;;;8.99;100.00
19086;BME280;9675;51.538;6.728;2024-02-14T02:04:04;101105.59;;;9.01;100.00
19086;BME280;9675;51.538;6.728;2024-02-14T02:06:31;101107.34;;;9.02;100.00
19086;BME280;9675;51.538;6.728;2024-02-14T02:09:00;101108.06;;;8.99;100.00
19086;BME280;9675;51.538;6.728;2024-02-14T02:11:27;101112.41;;;9.00;100.00
19086;BME280;9675;51.538;6.728;2024-02-14T02:13:54;101106.38;;;9.00;100.00
19086;BME280;9675;51.538;6.728;2024-02-14T02:16:21;101103.81;;;9.00;100.00
19086;BME280;9675;51.538;6.728;2024-02-14T02:18:48;101113.34;;;9.02;100.00
19086;BME280;9675;51.538;6.728;2024-02-14T02:21:15;101101.34;;;9.01;100.00
19086;BME280;9675;51.538;6.728;2024-02-14T02:23:46;101098.78;;;9.01;100.00
19086;BME280;9675;51.538;6.728;2024-02-14T02:26:13;101109.13;;;9.03;100.00
19086;BME280;9675;51.538;6.728;2024-02-14T02:28:40;101101.34;;;9.01;100.00
19086;BME280;9675;51.538;6.728;2024-02-14T02:31:08;101097.94;;;9.02;100.00
19086;BME280;9675;51.538;6.728;2024-02-14T02:33:36;101104.88;;;9.03;100.00
19086;BME280;9675;51.538;6.728;2024-02-14T02:36:03;101095.47;;;9.04;100.00
19086;BME280;9675;51.538;6.728;2024-02-14T02:38:31;101105.06;;;9.06;100.00
19086;BME280;9675;51.538;6.728;2024-02-14T02:41:00;101100.81;;;9.07;100.00
19086;BME280;9675;51.538;6.728;2024-02-14T02:43:27;101099.94;;;9.06;100.00
19086;BME280;9675;51.538;6.728;2024-02-14T02:45:54;101095.69;;;9.07;100.00
19086;BME280;9675;51.538;6.728;2024-02-14T02:48:23;101100.81;;;9.07;100.00
19086;BME280;9675;51.538;6.728;2024-02-14T02:50:51;101093.91;;;9.06;100.00
19086;BME280;9675;51.538;6.728;2024-02-14T02:53:19;101100.19;;;9.11;100.00
19086;BME280;9675;51.538;6.728;2024-02-14T02:55:46;101093.38;;;9.11;100.00
19086;BME280;9675;51.538;6.728;2024-02-14T02:58:18;101100.19;;;9.11;100.00
19086;BME280;9675;51.538;6.728;2024-02-14T03:00:46;101091.72;;;9.12;100.00
19086;BME280;9675;51.538;6.728;2024-02-14T03:03:15;101097.78;;;9.14;100.00
19086;BME280;9675;51.538;6.728;2024-02-14T03:05:42;101096.84;;;9.12;100.00
19086;BME280;9675;51.538;6.728;2024-02-14T03:08:10;101094.28;;;9.12;100.00
19086;BME280;9675;51.538;6.728;2024-02-14T03:10:39;101081.44;;;9.12;100.00
19086;BME280;9675;51.538;6.728;2024-02-14T03:13:07;101085.75;;;9.13;100.00
19086;BME280;9675;51.538;6.728;2024-02-14T03:15:36;101075.56;;;9.14;100.00
19086;BME280;9675;51.538;6.728;2024-02-14T03:18:03;101087.72;;;9.17;100.00
19086;BME280;9675;51.538;6.728;2024-02-14T03:20:33;101082.50;;;9.15;100.00
19086;BME280;9675;51.538;6.728;2024-02-14T03:23:00;101078.03;;;9.13;100.00
19086;BME280;9675;51.538;6.728;2024-02-14T03:25:29;101069.75;;;9.17;100.00
19086;BME280;9675;51.538;6.728;2024-02-14T03:27:56;101086.91;;;9.18;100.00
19086;BME280;9675;51.538;6.728;2024-02-14T03:30:24;101076.56;;;9.16;100.00
19086;BME280;9675;51.538;6.728;2024-02-14T03:32:52;101084.31;;;9.18;100.00
19086;BME280;9675;51.538;6.728;2024-02-14T03:35:21;101077.44;;;9.17;100.00
19086;BME280;9675;51.538;6.728;2024-02-14T03:37:49;101077.63;;;9.20;100.00
19086;BME280;9675;51.538;6.728;2024-02-14T03:40:18;101074.25;;;9.21;100.00
19086;BME280;9675;51.538;6.728;2024-02-14T03:42:46;101082.75;;;9.20;100.00
19086;BME280;9675;51.538;6.728;2024-02-14T03:45:13;101085.31;;;9.20;100.00
19086;BME280;9675;51.538;6.728;2024-02-14T03:47:41;101073.38;;;9.20;100.00
19086;BME280;9675;51.538;6.728;2024-02-14T03:50:09;101074.25;;;9.21;100.00
19086;BME280;9675;51.538;6.728;2024-02-14T03:52:37;101091.44;;;9.22;100.00
19086;BME280;9675;51.538;6.728;2024-02-14T03:55:05;101075.22;;;9.23;100.00
19086;BME280;9675;51.538;6.728;2024-02-14T03:57:32;101071.06;;;9.25;100.00
19086;BME280;9675;51.538;6.728;2024-02-14T04:00:01;101081.34;;;9.25;100.00
19086;BME280;9675;51.538;6.728;2024-02-14T04:02:28;101089.72;;;9.22;100.00
19086;BME280;9675;51.538;6.728;2024-02-14T04:04:55;101091.44;;;9.22;100.00
19086;BME280;9675;51.538;6.728;2024-02-14T04:07:23;101094.00;;;9.22;100.00
19086;BME280;9675;51.538;6.728;2024-02-14T04:09:50;101097.44;;;9.22;100.00
19086;BME280;9675;51.538;6.728;2024-02-14T04:12:18;101092.41;;;9.24;100.00
19086;BME280;9675;51.538;6.728;2024-02-14T04:14:45;101096.75;;;9.25;100.00
19086;BME280;9675;51.538;6.728;2024-02-14T04:17:12;101096.84;;;9.26;100.00
19086;BME280;9675;51.538;6.728;2024-02-14T04:19:40;101097.63;;;9.25;100.00
19086;BME280;9675;51.538;6.728;2024-02-14T04:22:07;101100.31;;;9.27;100.00
19086;BME280;9675;51.538;6.728;2024-02-14T04:24:36;101095.16;;;9.27;100.00
19086;BME280;9675;51.538;6.728;2024-02-14T04:27:03;101100.31;;;9.27;100.00
19086;BME280;9675;51.538;6.728;2024-02-14T04:29:30;101100.31;;;9.27;100.00
19086;BME280;9675;51.538;6.728;2024-02-14T04:31:59;101106.31;;;9.27;100.00
19086;BME280;9675;51.538;6.728;2024-02-14T04:34:26;101107.19;;;9.28;100.00
19086;BME280;9675;51.538;6.728;2024-02-14T04:36:53;101104.81;;;9.31;100.00
19086;BME280;9675;51.538;6.728;2024-02-14T04:39:20;101112.34;;;9.28;100.00
19086;BME280;9675;51.538;6.728;2024-02-14T04:41:48;101109.88;;;9.29;100.00
19086;BME280;9675;51.538;6.728;2024-02-14T04:44:15;101109.19;;;9.32;100.00
19086;BME280;9675;51.538;6.728;2024-02-14T04:46:43;101112.69;;;9.34;100.00
19086;BME280;9675;51.538;6.728;2024-02-14T04:49:10;101111.81;;;9.33;100.00
19086;BME280;9675;51.538;6.728;2024-02-14T04:51:38;101116.16;;;9.34;100.00
19086;BME280;9675;51.538;6.728;2024-02-14T04:54:05;101122.97;;;9.34;100.00
19086;BME280;9675;51.538;6.728;2024-02-14T04:56:33;101116.25;;;9.36;100.00
19086;BME280;9675;51.538;6.728;2024-02-14T04:59:01;101123.19;;;9.37;100.00
19086;BME280;9675;51.538;6.728;2024-02-14T05:01:28;101128.31;;;9.37;100.00
19086;BME280;9675;51.538;6.728;2024-02-14T05:03:55;101123.19;;;9.37;100.00
19086;BME280;9675;51.538;6.728;2024-02-14T05:06:22;101127.50;;;9.38;100.00
19086;BME280;9675;51.538;6.728;2024-02-14T05:08:49;101131.84;;;9.39;100.00
19086;BME280;9675;51.538;6.728;2024-02-14T05:11:17;101136.97;;;9.39;100.00
19086;BME280;9675;51.538;6.728;2024-02-14T05:13:44;101146.38;;;9.38;100.00
19086;BME280;9675;51.538;6.728;2024-02-14T05:16:17;101143.91;;;9.40;100.00
19086;BME280;9675;51.538;6.728;2024-02-14T05:18:44;101137.19;;;9.42;100.00
19086;BME280;9675;51.538;6.728;2024-02-14T05:21:12;101143.22;;;9.43;100.00
19086;BME280;9675;51.538;6.728;2024-02-14T05:23:39;101152.59;;;9.42;100.00
19086;BME280;9675;51.538;6.728;2024-02-14T05:26:06;101150.81;;;9.41;100.00
19086;BME280;9675;51.538;6.728;2024-02-14T05:28:33;101144.06;;;9.43;100.00
19086;BME280;9675;51.538;6.728;2024-02-14T05:31:01;101147.63;;;9.45;100.00
19086;BME280;9675;51.538;6.728;2024-02-14T05:33:30;101147.63;;;9.45;100.00
19086;BME280;9675;51.538;6.728;2024-02-14T05:35:57;101147.63;;;9.45;100.00
19086;BME280;9675;51.538;6.728;2024-02-14T05:38:24;101132.94;;;9.43;100.00
19086;BME280;9675;51.538;6.728;2024-02-14T05:40:51;101142.50;;;9.45;100.00
19086;BME280;9675;51.538;6.728;2024-02-14T05:43:18;101141.59;;;9.45;100.00
19086;BME280;9675;51.538;6.728;2024-02-14T05:45:45;101150.31;;;9.47;100.00
19086;BME280;9675;51.538;6.728;2024-02-14T05:48:12;101151.19;;;9.47;100.00
19086;BME280;9675;51.538;6.728;2024-02-14T05:50:41;101146.94;;;9.48;100.00
19086;BME280;9675;51.538;6.728;2024-02-14T05:53:09;101146.94;;;9.48;100.00
19086;BME280;9675;51.538;6.728;2024-02-14T05:55:36;101147.91;;;9.50;100.00
19086;BME280;9675;51.538;6.728;2024-02-14T05:58:03;101151.19;;;9.47;100.00
19086;BME280;9675;51.538;6.728;2024-02-14T06:00:30;101152.25;;;9.51;100.00
19086;BME280;9675;51.538;6.728;2024-02-14T06:02:57;101159.25;;;9.53;100.00
19086;BME280;9675;51.538;6.728;2024-02-14T06:05:24;101162.44;;;9.49;100.00
19086;BME280;9675;51.538;6.728;2024-02-14T06:07:52;101160.75;;;9.50;100.00
19086;BME280;9675;51.538;6.728;2024-02-14T06:10:19;101162.53;;;9.51;100.00
19086;BME280;9675;51.538;6.728;2024-02-14T06:12:46;101160.84;;;9.51;100.00
19086;BME280;9675;51.538;6.728;2024-02-14T06:15:14;101169.44;;;9.52;100.00
19086;BME280;9675;51.538;6.728;2024-02-14T06:17:42;101175.38;;;9.51;100.00
19086;BME280;9675;51.538;6.728;2024-02-14T06:20:10;101174.59;;;9.52;100.00
19086;BME280;9675;51.538;6.728;2024-02-14T06:22:38;101175.47;;;9.52;100.00
19086;BME280;9675;51.538;6.728;2024-02-14T06:25:07;101181.41;;;9.51;100.00
19086;BME280;9675;51.538;6.728;2024-02-14T06:27:34;101183.97;;;9.51;100.00
19086;BME280;9675;51.538;6.728;2024-02-14T06:30:03;101177.16;;;9.52;100.00
19086;BME280;9675;51.538;6.728;2024-02-14T06:32:30;101183.19;;;9.52;100.00
19086;BME280;9675;51.538;6.728;2024-02-14T06:34:57;101184.97;;;9.53;100.00
19086;BME280;9675;51.538;6.728;2024-02-14T06:37:24;101190.19;;;9.55;100.00
19086;BME280;9675;51.538;6.728;2024-02-14T06:39:51;101185.94;;;9.55;100.00
19086;BME280;9675;51.538;6.728;2024-02-14T06:42:20;101189.50;;;9.57;100.00
19086;BME280;9675;51.538;6.728;2024-02-14T06:44:47;101191.97;;;9.56;100.00
19086;BME280;9675;51.538;6.728;2024-02-14T06:47:15;101191.06;;;9.55;100.00
19086;BME280;9675;51.538;6.728;2024-02-14T06:49:42;101199.78;;;9.57;100.00
19086;BME280;9675;51.538;6.728;2024-02-14T06:52:09;101194.63;;;9.57;100.00
19086;BME280;9675;51.538;6.728;2024-02-14T06:54:36;101193.75;;;9.57;100.00
19086;BME280;9675;51.538;6.728;2024-02-14T06:57:04;101198.00;;;9.56;100.00
19086;BME280;9675;51.538;6.728;2024-02-14T06:59:34;101207.47;;;9.57;100.00
19086;BME280;9675;51.538;6.728;2024-02-14T07:02:02;101208.28;;;9.56;100.00
19086;BME280;9675;51.538;6.728;2024-02-14T07:04:31;101206.69;;;9.58;100.00
19086;BME280;9675;51.538;6.728;2024-02-14T07:06:58;101218.72;;;9.59;100.00
19086;BME280;9675;51.538;6.728;2024-02-14T07:09:26;101229.84;;;9.58;100.00
19086;BME280;9675;51.538;6.728;2024-02-14T07:11:54;101215.25;;;9.59;100.00
19086;BME280;9675;51.538;6.728;2024-02-14T07:14:22;101216.09;;;9.58;100.00
19086;BME280;9675;51.538;6.728;2024-02-14T07:16:50;101226.44;;;9.59;100.00
19086;BME280;9675;51.538;6.728;2024-02-14T07:19:18;101221.28;;;9.59;100.00
19086;BME280;9675;51.538;6.728;2024-02-14T07:21:45;101221.50;;;9.62;100.00
19086;BME280;9675;51.538;6.728;2024-02-14T07:24:12;101228.50;;;9.65;100.00
19086;BME280;9675;51.538;6.728;2024-02-14T07:26:39;101229.22;;;9.62;100.00
19086;BME280;9675;51.538;6.728;2024-02-14T07:29:09;101219.72;;;9.61;100.00
19086;BME280;9675;51.538;6.728;2024-02-14T07:31:36;101228.22;;;9.60;100.00
19086;BME280;9675;51.538;6.728;2024-02-14T07:34:04;101226.53;;;9.61;100.00
19086;BME280;9675;51.538;6.728;2024-02-14T07:36:32;101224.75;;;9.60;100.00
19086;BME280;9675;51.538;6.728;2024-02-14T07:38:59;101232.56;;;9.61;100.00
19086;BME280;9675;51.538;6.728;2024-02-14T07:41:26;101232.56;;;9.61;100.00
19086;BME280;9675;51.538;6.728;2024-02-14T07:43:53;101230.00;;;9.61;100.00
19086;BME280;9675;51.538;6.728;2024-02-14T07:46:22;101217.16;;;9.61;100.00
19086;BME280;9675;51.538;6.728;2024-02-14T07:48:52;101227.44;;;9.61;100.00
19086;BME280;9675;51.538;6.728;2024-02-14T07:51:20;101226.53;;;9.61;100.00
19086;BME280;9675;51.538;6.728;2024-02-14T07:53:49;101233.56;;;9.63;100.00
19086;BME280;9675;51.538;6.728;2024-02-14T07:56:16;101225.13;;;9.66;100.00
19086;BME280;9675;51.538;6.728;2024-02-14T07:58:43;101222.66;;;9.67;100.00
19086;BME280;9675;51.538;6.728;2024-02-14T08:01:10;101229.56;;;9.68;100.00
19086;BME280;9675;51.538;6.728;2024-02-14T08:03:40;101233.84;;;9.68;100.00
19086;BME280;9675;51.538;6.728;2024-02-14T08:06:07;101229.56;;;9.68;100.00
19086;BME280;9675;51.538;6.728;2024-02-14T08:08:36;101235.56;;;9.69;100.00
19086;BME280;9675;51.538;6.728;2024-02-14T08:11:04;101233.91;;;9.69;100.00
19086;BME280;9675;51.538;6.728;2024-02-14T08:13:31;101233.84;;;9.68;100.00
19086;BME280;9675;51.538;6.728;2024-02-14T08:16:00;101239.75;;;9.67;100.00
19086;BME280;9675;51.538;6.728;2024-02-14T08:18:27;101231.31;;;9.69;100.00
19086;BME280;9675;51.538;6.728;2024-02-14T08:20:54;101234.88;;;9.71;100.00
19086;BME280;9675;51.538;6.728;2024-02-14T08:23:21;101234.00;;;9.71;100.00
19086;BME280;9675;51.538;6.728;2024-02-14T08:25:49;101230.53;;;9.70;100.00
19086;BME280;9675;51.538;6.728;2024-02-14T08:28:16;101243.59;;;9.73;100.00
19086;BME280;9675;51.538;6.728;2024-02-14T08:30:46;101250.47;;;9.74;100.00
19086;BME280;9675;51.538;6.728;2024-02-14T08:33:13;101253.06;;;9.74;100.00
19086;BME280;9675;51.538;6.728;2024-02-14T08:35:40;101254.03;;;9.76;100.00
19086;BME280;9675;51.538;6.728;2024-02-14T08:38:07;101259.19;;;9.76;100.00
19086;BME280;9675;51.538;6.728;2024-02-14T08:40:34;101257.50;;;9.77;100.00
19086;BME280;9675;51.538;6.728;2024-02-14T08:43:02;101258.50;;;9.79;100.00
19086;BME280;9675;51.538;6.728;2024-02-14T08:45:30;101262.75;;;9.78;100.00
19086;BME280;9675;51.538;6.728;2024-02-14T08:47:57;101263.66;;;9.79;100.00
19086;BME280;9675;51.538;6.728;2024-02-14T08:50:24;101257.78;;;9.81;100.00
19086;BME280;9675;51.538;6.728;2024-02-14T08:52:51;101273.31;;;9.83;100.00
19086;BME280;9675;51.538;6.728;2024-02-14T08:55:18;101268.06;;;9.81;100.00
19086;BME280;9675;51.538;6.728;2024-02-14T08:57:45;101270.63;;;9.81;100.00
19086;BME280;9675;51.538;6.728;2024-02-14T09:00:16;101270.72;;;9.83;100.00
19086;BME280;9675;51.538;6.728;2024-02-14T09:02:45;101270.72;;;9.83;100.00
19086;BME280;9675;51.538;6.728;2024-02-14T09:05:13;101272.50;;;9.84;100.00
19086;BME280;9675;51.538;6.728;2024-02-14T09:07:42;101275.16;;;9.86;100.00
19086;BME280;9675;51.538;6.728;2024-02-14T09:10:10;101279.69;;;9.90;100.00
19086;BME280;9675;51.538;6.728;2024-02-14T09:12:38;101273.75;;;9.91;100.00
19086;BME280;9675;51.538;6.728;2024-02-14T09:15:07;101279.00;;;9.92;100.00
19086;BME280;9675;51.538;6.728;2024-02-14T09:17:36;101272.94;;;9.92;100.00
19086;BME280;9675;51.538;6.728;2024-02-14T09:20:05;101273.94;;;9.94;100.00
19086;BME280;9675;51.538;6.728;2024-02-14T09:22:35;101280.88;;;9.95;100.00
19086;BME280;9675;51.538;6.728;2024-02-14T09:25:02;101276.59;;;9.95;100.00
19086;BME280;9675;51.538;6.728;2024-02-14T09:27:31;101278.28;;;9.95;100.00
19086;BME280;9675;51.538;6.728;2024-02-14T09:29:58;101284.41;;;9.97;100.00
19086;BME280;9675;51.538;6.728;2024-02-14T09:32:26;101277.47;;;9.96;100.00
19086;BME280;9675;51.538;6.728;2024-02-14T09:34:54;101279.50;;;10.01;100.00
19086;BME280;9675;51.538;6.728;2024-02-14T09:37:21;101285.56;;;10.02;100.00
19086;BME280;9675;51.538;6.728;2024-02-14T09:39:49;101281.28;;;10.02;100.00
19086;BME280;9675;51.538;6.728;2024-02-14T09:42:19;101277.84;;;10.02;100.00
19086;BME280;9675;51.538;6.728;2024-02-14T09:44:52;101285.66;;;10.03;100.00
19086;BME280;9675;51.538;6.728;2024-02-14T09:47:26;101284.94;;;10.06;100.00
19086;BME280;9675;51.538;6.728;2024-02-14T09:50:01;101286.03;;;10.09;100.00
19086;BME280;9675;51.538;6.728;2024-02-14T09:52:33;101287.69;;;10.09;100.00
19086;BME280;9675;51.538;6.728;2024-02-14T09:55:02;101278.19;;;10.08;100.00
19086;BME280;9675;51.538;6.728;2024-02-14T09:57:31;101286.91;;;10.10;100.00
19086;BME280;9675;51.538;6.728;2024-02-14T10:00:00;101296.31;;;10.09;100.00
19086;BME280;9675;51.538;6.728;2024-02-14T10:02:30;101294.78;;;10.13;100.00
19086;BME280;9675;51.538;6.728;2024-02-14T10:04:58;101294.88;;;10.14;100.00
19086;BME280;9675;51.538;6.728;2024-02-14T10:07:25;101302.72;;;10.16;100.00
19086;BME280;9675;51.538;6.728;2024-02-14T10:09:53;101302.00;;;10.18;100.00
19086;BME280;9675;51.538;6.728;2024-02-14T10:12:20;101297.03;;;10.21;100.00
19086;BME280;9675;51.538;6.728;2024-02-14T10:14:47;101301.50;;;10.24;100.00
19086;BME280;9675;51.538;6.728;2024-02-14T10:17:19;101300.69;;;10.25;100.00
19086;BME280;9675;51.538;6.728;2024-02-14T10:19:56;101301.66;;;10.27;100.00
19086;BME280;9675;51.538;6.728;2024-02-14T10:22:31;101304.41;;;10.30;100.00
19086;BME280;9675;51.538;6.728;2024-02-14T10:24:59;101303.59;;;10.31;100.00
19086;BME280;9675;51.538;6.728;2024-02-14T10:27:26;101305.47;;;10.34;100.00
19086;BME280;9675;51.538;6.728;2024-02-14T10:29:56;101311.50;;;10.34;100.00
19086;BME280;9675;51.538;6.728;2024-02-14T10:32:23;101318.50;;;10.37;100.00
19086;BME280;9675;51.538;6.728;2024-02-14T10:34:50;101316.03;;;10.38;100.00
19086;BME280;9675;51.538;6.728;2024-02-14T10:37:18;101323.06;;;10.41;100.00
19086;BME280;9675;51.538;6.728;2024-02-14T10:39:50;101322.44;;;10.45;100.00
19086;BME280;9675;51.538;6.728;2024-02-14T10:42:18;101321.69;;;10.47;100.00
19086;BME280;9675;51.538;6.728;2024-02-14T10:44:46;101320.81;;;10.47;100.00
19086;BME280;9675;51.538;6.728;2024-02-14T10:47:19;101320.91;;;10.48;100.00
19086;BME280;9675;51.538;6.728;2024-02-14T10:49:50;101320.22;;;10.51;100.00
19086;BME280;9675;51.538;6.728;2024-02-14T10:52:18;101323.84;;;10.54;100.00
19086;BME280;9675;51.538;6.728;2024-02-14T10:54:55;101317.09;;;10.56;100.00
19086;BME280;9675;51.538;6.728;2024-02-14T10:57:24;101309.44;;;10.58;100.00
19086;BME280;9675;51.538;6.728;2024-02-14T10:59:53;101318.25;;;10.61;100.00
19086;BME280;9675;51.538;6.728;2024-02-14T11:02:22;101323.47;;;10.63;100.00
19086;BME280;9675;51.538;6.728;2024-02-14T11:04:49;101324.53;;;10.67;100.00
19086;BME280;9675;51.538;6.728;2024-02-14T11:07:20;101323.81;;;10.69;100.00
19086;BME280;9675;51.538;6.728;2024-02-14T11:10:01;101327.19;;;10.68;100.00
19086;BME280;9675;51.538;6.728;2024-02-14T11:12:33;101331.81;;;10.74;100.00
19086;BME280;9675;51.538;6.728;2024-02-14T11:15:09;101326.84;;;10.77;100.00
19086;BME280;9675;51.538;6.728;2024-02-14T11:17:37;101322.56;;;10.77;100.00
19086;BME280;9675;51.538;6.728;2024-02-14T11:20:16;101309.75;;;10.79;100.00
19086;BME280;9675;51.538;6.728;2024-02-14T11:22:54;101300.88;;;10.74;100.00
19086;BME280;9675;51.538;6.728;2024-02-14T11:25:33;101320.41;;;10.85;100.00
19086;BME280;9675;51.538;6.728;2024-02-14T11:28:12;101326.56;;;10.87;100.00
19086;BME280;9675;51.538;6.728;2024-02-14T11:30:41;101325.75;;;10.88;100.00
19086;BME280;9675;51.538;6.728;2024-02-14T11:33:13;101312.94;;;10.89;100.00
19086;BME280;9675;51.538;6.728;2024-02-14T11:35:42;101323.44;;;10.92;100.00
19086;BME280;9675;51.538;6.728;2024-02-14T11:38:09;101318.44;;;10.95;100.00
19086;BME280;9675;51.538;6.728;2024-02-14T11:40:38;101318.53;;;10.97;100.00
19086;BME280;9675;51.538;6.728;2024-02-14T11:43:11;101317.78;;;10.99;100.00
19086;BME280;9675;51.538;6.728;2024-02-14T11:45:39;101315.41;;;11.02;100.00
19086;BME280;9675;51.538;6.728;2024-02-14T11:48:09;101317.25;;;11.05;100.00
19086;BME280;9675;51.538;6.728;2024-02-14T11:50:38;101307.94;;;11.07;100.00
19086;BME280;9675;51.538;6.728;2024-02-14T11:53:06;101312.34;;;11.09;100.00
19086;BME280;9675;51.538;6.728;2024-02-14T11:55:37;101315.00;;;11.11;100.00
19086;BME280;9675;51.538;6.728;2024-02-14T11:58:07;101304.84;;;11.14;100.00
19086;BME280;9675;51.538;6.728;2024-02-14T12:00:35;101299.78;;;11.16;100.00
19086;BME280;9675;51.538;6.728;2024-02-14T12:03:06;101293.09;;;11.19;100.00
19086;BME280;9675;51.538;6.728;2024-02-14T12:05:34;101308.75;;;11.22;100.00
19086;BME280;9675;51.538;6.728;2024-02-14T12:08:06;101299.34;;;11.23;100.00
19086;BME280;9675;51.538;6.728;2024-02-14T12:10:35;101303.03;;;11.28;100.00
19086;BME280;9675;51.538;6.728;2024-02-14T12:13:08;101300.56;;;11.29;100.00
19086;BME280;9675;51.538;6.728;2024-02-14T12:15:40;101310.28;;;11.35;100.00
19086;BME280;9675;51.538;6.728;2024-02-14T12:18:08;101311.19;;;11.35;100.00
19086;BME280;9675;51.538;6.728;2024-02-14T12:20:36;101301.75;;;11.36;100.00
19086;BME280;9675;51.538;6.728;2024-02-14T12:23:04;101305.31;;;11.38;100.00
19086;BME280;9675;51.538;6.728;2024-02-14T12:25:33;101304.56;;;11.40;100.00
19086;BME280;9675;51.538;6.728;2024-02-14T12:28:01;101308.13;;;11.42;100.00
19086;BME280;9675;51.538;6.728;2024-02-14T12:30:44;101301.28;;;11.43;100.00
19086;BME280;9675;51.538;6.728;2024-02-14T12:33:12;101294.44;;;11.43;100.00
19086;BME280;9675;51.538;6.728;2024-02-14T12:35:44;101296.38;;;11.47;100.00
19086;BME280;9675;51.538;6.728;2024-02-14T12:38:13;101284.28;;;11.46;100.00
19086;BME280;9675;51.538;6.728;2024-02-14T12:40:41;101301.69;;;11.50;100.00
19086;BME280;9675;51.538;6.728;2024-02-14T12:43:11;101306.13;;;11.53;100.00
19086;BME280;9675;51.538;6.728;2024-02-14T12:45:40;101315.69;;;11.56;100.00
19086;BME280;9675;51.538;6.728;2024-02-14T12:48:09;101306.28;;;11.56;100.00
19086;BME280;9675;51.538;6.728;2024-02-14T12:50:38;101311.53;;;11.58;100.00
19086;BME280;9675;51.538;6.728;2024-02-14T12:53:06;101301.34;;;11.61;100.00
19086;BME280;9675;51.538;6.728;2024-02-14T12:55:33;101289.34;;;11.61;100.00
19086;BME280;9675;51.538;6.728;2024-02-14T12:58:01;101296.38;;;11.64;100.00
19086;BME280;9675;51.538;6.728;2024-02-14T13:00:29;101295.56;;;11.65;100.00
19086;BME280;9675;51.538;6.728;2024-02-14T13:02:58;101297.34;;;11.66;100.00